sensor_id;sensor_type;location;lat;lon;timestamp;temperature;humidity
1686;DHT22;840;47.980;7.830;2022-08-19T00:01:17;20.30;99.90
1686;DHT22;840;47.980;7.830;2022-08-19T00:03:44;20.30;99.90
1686;DHT22;840;47.980;7.830;2022-08-19T00:06:11;20.30;99.90
1686;DHT22;840;47.980;7.830;2022-08-19T00:08:39;20.20;99.90
1686;DHT22;840;47.980;7.830;2022-08-19T00:11:06;20.20;99.90
1686;DHT22;840;47.980;7.830;2022-08-19T00:13:33;20.10;99.90
1686;DHT22;840;47.980;7.830;2022-08-19T00:16:01;20.10;99.90
1686;DHT22;840;47.980;7.830;2022-08-19T00:18:28;20.10;99.90
1686;DHT22;840;47.980;7.830;2022-08-19T00:20:54;20.10;99.90
1686;DHT22;840;47.980;7.830;2022-08-19T00:23:21;20.00;99.90
1686;DHT22;840;47.980;7.830;2022-08-19T00:25:49;20.00;99.90
1686;DHT22;840;47.980;7.830;2022-08-19T00:28:17;19.90;99.90
1686;DHT22;840;47.980;7.830;2022-08-19T00:30:45;19.90;99.90
1686;DHT22;840;47.980;7.830;2022-08-19T00:33:11;19.80;99.90
1686;DHT22;840;47.980;7.830;2022-08-19T00:35:39;19.80;99.90
1686;DHT22;840;47.980;7.830;2022-08-19T00:38:05;19.80;99.90
1686;DHT22;840;47.980;7.830;2022-08-19T00:40:32;19.80;99.90
1686;DHT22;840;47.980;7.830;2022-08-19T00:43:00;19.80;99.90
1686;DHT22;840;47.980;7.830;2022-08-19T00:45:28;19.80;99.90
1686;DHT22;840;47.980;7.830;2022-08-19T00:47:57;19.80;99.90
1686;DHT22;840;47.980;7.830;2022-08-19T00:50:29;19.80;99.90
1686;DHT22;840;47.980;7.830;2022-08-19T00:52:56;19.90;99.90
1686;DHT22;840;47.980;7.830;2022-08-19T00:55:25;19.90;99.90
1686;DHT22;840;47.980;7.830;2022-08-19T00:57:57;19.90;99.90
1686;DHT22;840;47.980;7.830;2022-08-19T01:00:27;19.90;99.90
1686;DHT22;840;47.980;7.830;2022-08-19T01:02:54;19.90;99.90
1686;DHT22;840;47.980;7.830;2022-08-19T01:05:23;19.90;99.90
1686;DHT22;840;47.980;7.830;2022-08-19T01:07:53;19.90;99.90
1686;DHT22;840;47.980;7.830;2022-08-19T01:10:24;19.90;99.90
1686;DHT22;840;47.980;7.830;2022-08-19T01:12:52;20.00;99.90
1686;DHT22;840;47.980;7.830;2022-08-19T01:15:25;20.00;99.90
1686;DHT22;840;47.980;7.830;2022-08-19T01:17:55;20.00;99.90
1686;DHT22;840;47.980;7.830;2022-08-19T01:20:23;20.00;99.90
1686;DHT22;840;47.980;7.830;2022-08-19T01:22:53;20.00;99.90
1686;DHT22;840;47.980;7.830;2022-08-19T01:25:24;20.00;99.90
1686;DHT22;840;47.980;7.830;2022-08-19T01:27:53;20.00;99.90
1686;DHT22;840;47.980;7.830;2022-08-19T01:30:24;20.00;99.90
1686;DHT22;840;47.980;7.830;2022-08-19T01:32:51;20.00;99.90
1686;DHT22;840;47.980;7.830;2022-08-19T01:35:18;20.00;99.90
1686;DHT22;840;47.980;7.830;2022-08-19T01:37:47;20.00;99.90
1686;DHT22;840;47.980;7.830;2022-08-19T01:40:16;20.00;99.90
1686;DHT22;840;47.980;7.830;2022-08-19T01:42:44;20.00;99.90
1686;DHT22;840;47.980;7.830;2022-08-19T01:45:26;20.00;99.90
1686;DHT22;840;47.980;7.830;2022-08-19T01:47:54;20.00;99.90
1686;DHT22;840;47.980;7.830;2022-08-19T01:50:22;20.00;99.90
1686;DHT22;840;47.980;7.830;2022-08-19T01:52:48;20.00;99.90
1686;DHT22;840;47.980;7.830;2022-08-19T01:55:19;20.00;99.90
1686;DHT22;840;47.980;7.830;2022-08-19T01:57:50;20.00;99.90
1686;DHT22;840;47.980;7.830;2022-08-19T02:00:20;20.00;99.90
1686;DHT22;840;47.980;7.830;2022-08-19T02:02:47;20.00;99.90
1686;DHT22;840;47.980;7.830;2022-08-19T02:05:14;20.00;99.90
1686;DHT22;840;47.980;7.830;2022-08-19T02:07:44;20.00;99.90
1686;DHT22;840;47.980;7.830;2022-08-19T02:10:14;20.10;99.90
1686;DHT22;840;47.980;7.830;2022-08-19T02:12:42;20.10;99.90
1686;DHT22;840;47.980;7.830;2022-08-19T02:15:10;20.00;99.90
1686;DHT22;840;47.980;7.830;2022-08-19T02:17:38;20.00;99.90
1686;DHT22;840;47.980;7.830;2022-08-19T02:20:06;19.90;99.90
1686;DHT22;840;47.980;7.830;2022-08-19T02:22:33;19.90;99.90
1686;DHT22;840;47.980;7.830;2022-08-19T02:25:01;19.90;99.90
1686;DHT22;840;47.980;7.830;2022-08-19T02:27:28;19.90;99.90
1686;DHT22;840;47.980;7.830;2022-08-19T02:29:56;19.90;99.90
1686;DHT22;840;47.980;7.830;2022-08-19T02:32:23;19.90;99.90
1686;DHT22;840;47.980;7.830;2022-08-19T02:34:49;19.90;99.90
1686;DHT22;840;47.980;7.830;2022-08-19T02:37:16;19.90;99.90
1686;DHT22;840;47.980;7.830;2022-08-19T02:40:00;19.90;99.90
1686;DHT22;840;47.980;7.830;2022-08-19T02:42:27;19.90;99.90
1686;DHT22;840;47.980;7.830;2022-08-19T02:44:56;19.80;99.90
1686;DHT22;840;47.980;7.830;2022-08-19T02:47:23;19.80;99.90
1686;DHT22;840;47.980;7.830;2022-08-19T02:49:50;19.80;99.90
1686;DHT22;840;47.980;7.830;2022-08-19T02:52:16;19.80;99.90
1686;DHT22;840;47.980;7.830;2022-08-19T02:54:43;19.80;99.90
1686;DHT22;840;47.980;7.830;2022-08-19T02:57:10;19.80;99.90
1686;DHT22;840;47.980;7.830;2022-08-19T02:59:37;19.80;99.90
1686;DHT22;840;47.980;7.830;2022-08-19T03:02:06;19.80;99.90
1686;DHT22;840;47.980;7.830;2022-08-19T03:04:33;19.80;99.90
1686;DHT22;840;47.980;7.830;2022-08-19T03:07:00;19.80;99.90
1686;DHT22;840;47.980;7.830;2022-08-19T03:09:26;19.80;99.90
1686;DHT22;840;47.980;7.830;2022-08-19T03:11:55;19.80;99.90
1686;DHT22;840;47.980;7.830;2022-08-19T03:14:21;19.80;99.90
1686;DHT22;840;47.980;7.830;2022-08-19T03:16:52;19.80;99.90
1686;DHT22;840;47.980;7.830;2022-08-19T03:19:20;19.80;99.90
1686;DHT22;840;47.980;7.830;2022-08-19T03:21:48;19.80;99.90
1686;DHT22;840;47.980;7.830;2022-08-19T03:24:16;19.70;99.90
1686;DHT22;840;47.980;7.830;2022-08-19T03:26:47;19.70;99.90
1686;DHT22;840;47.980;7.830;2022-08-19T03:29:14;19.70;99.90
1686;DHT22;840;47.980;7.830;2022-08-19T03:31:42;19.70;99.90
1686;DHT22;840;47.980;7.830;2022-08-19T03:34:10;19.70;99.90
1686;DHT22;840;47.980;7.830;2022-08-19T03:36:39;19.70;99.90
1686;DHT22;840;47.980;7.830;2022-08-19T03:39:06;19.70;99.90
1686;DHT22;840;47.980;7.830;2022-08-19T03:41:40;19.70;99.90
1686;DHT22;840;47.980;7.830;2022-08-19T03:44:07;19.70;99.90
1686;DHT22;840;47.980;7.830;2022-08-19T03:46:35;19.70;99.90
1686;DHT22;840;47.980;7.830;2022-08-19T03:49:03;19.70;99.90
1686;DHT22;840;47.980;7.830;2022-08-19T03:51:35;19.70;99.90
1686;DHT22;840;47.980;7.830;2022-08-19T03:54:06;19.80;99.90
1686;DHT22;840;47.980;7.830;2022-08-19T03:56:34;19.80;99.90
1686;DHT22;840;47.980;7.830;2022-08-19T03:59:01;19.80;99.90
1686;DHT22;840;47.980;7.830;2022-08-19T04:01:29;19.80;99.90
1686;DHT22;840;47.980;7.830;2022-08-19T04:03:57;19.80;99.90
1686;DHT22;840;47.980;7.830;2022-08-19T04:06:25;19.80;99.90
1686;DHT22;840;47.980;7.830;2022-08-19T04:08:54;19.80;99.90
1686;DHT22;840;47.980;7.830;2022-08-19T04:11:24;19.80;99.90
1686;DHT22;840;47.980;7.830;2022-08-19T04:13:53;19.80;99.90
1686;DHT22;840;47.980;7.830;2022-08-19T04:16:22;19.80;99.90
1686;DHT22;840;47.980;7.830;2022-08-19T04:18:49;19.80;99.90
1686;DHT22;840;47.980;7.830;2022-08-19T04:21:18;19.80;99.90
1686;DHT22;840;47.980;7.830;2022-08-19T04:23:46;19.80;99.90
1686;DHT22;840;47.980;7.830;2022-08-19T04:26:13;19.80;99.90
1686;DHT22;840;47.980;7.830;2022-08-19T04:28:42;19.80;99.90
1686;DHT22;840;47.980;7.830;2022-08-19T04:31:13;19.80;99.90
1686;DHT22;840;47.980;7.830;2022-08-19T04:33:40;19.80;99.90
1686;DHT22;840;47.980;7.830;2022-08-19T04:36:08;19.80;99.90
1686;DHT22;840;47.980;7.830;2022-08-19T04:38:35;19.80;99.90
1686;DHT22;840;47.980;7.830;2022-08-19T04:41:03;19.80;99.90
1686;DHT22;840;47.980;7.830;2022-08-19T04:43:48;19.80;99.90
1686;DHT22;840;47.980;7.830;2022-08-19T04:46:15;19.80;99.90
1686;DHT22;840;47.980;7.830;2022-08-19T04:48:43;19.80;99.90
1686;DHT22;840;47.980;7.830;2022-08-19T04:51:12;19.80;99.90
1686;DHT22;840;47.980;7.830;2022-08-19T04:53:41;19.80;99.90
1686;DHT22;840;47.980;7.830;2022-08-19T04:56:09;19.80;99.90
1686;DHT22;840;47.980;7.830;2022-08-19T04:58:38;19.80;99.90
1686;DHT22;840;47.980;7.830;2022-08-19T05:01:09;19.80;99.90
1686;DHT22;840;47.980;7.830;2022-08-19T05:03:36;19.80;99.90
1686;DHT22;840;47.980;7.830;2022-08-19T05:06:05;19.80;99.90
1686;DHT22;840;47.980;7.830;2022-08-19T05:08:34;19.80;99.90
1686;DHT22;840;47.980;7.830;2022-08-19T05:11:11;19.80;99.90
1686;DHT22;840;47.980;7.830;2022-08-19T05:13:38;19.80;99.90
1686;DHT22;840;47.980;7.830;2022-08-19T05:16:05;19.80;99.90
1686;DHT22;840;47.980;7.830;2022-08-19T05:18:34;19.80;99.90
1686;DHT22;840;47.980;7.830;2022-08-19T05:21:19;19.80;99.90
1686;DHT22;840;47.980;7.830;2022-08-19T05:24:04;19.90;99.90
1686;DHT22;840;47.980;7.830;2022-08-19T05:26:34;19.90;99.90
1686;DHT22;840;47.980;7.830;2022-08-19T05:29:01;20.00;99.90
1686;DHT22;840;47.980;7.830;2022-08-19T05:31:28;20.00;99.90
1686;DHT22;840;47.980;7.830;2022-08-19T05:33:56;20.00;99.90
1686;DHT22;840;47.980;7.830;2022-08-19T05:36:24;20.00;99.90
1686;DHT22;840;47.980;7.830;2022-08-19T05:38:50;20.00;99.90
1686;DHT22;840;47.980;7.830;2022-08-19T05:41:18;20.00;99.90
1686;DHT22;840;47.980;7.830;2022-08-19T05:43:46;20.00;99.90
1686;DHT22;840;47.980;7.830;2022-08-19T05:46:17;20.00;99.90
1686;DHT22;840;47.980;7.830;2022-08-19T05:48:45;20.10;99.90
1686;DHT22;840;47.980;7.830;2022-08-19T05:51:13;20.10;99.90
1686;DHT22;840;47.980;7.830;2022-08-19T05:53:39;20.10;99.90
1686;DHT22;840;47.980;7.830;2022-08-19T05:56:07;20.20;99.90
1686;DHT22;840;47.980;7.830;2022-08-19T05:58:34;20.20;99.90
1686;DHT22;840;47.980;7.830;2022-08-19T06:01:02;20.20;99.90
1686;DHT22;840;47.980;7.830;2022-08-19T06:03:31;20.30;99.90
1686;DHT22;840;47.980;7.830;2022-08-19T06:05:58;20.30;99.90
1686;DHT22;840;47.980;7.830;2022-08-19T06:08:27;20.30;99.90
1686;DHT22;840;47.980;7.830;2022-08-19T06:10:54;20.30;99.90
1686;DHT22;840;47.980;7.830;2022-08-19T06:13:21;20.40;99.90
1686;DHT22;840;47.980;7.830;2022-08-19T06:15:49;20.40;99.90
1686;DHT22;840;47.980;7.830;2022-08-19T06:18:16;20.40;99.90
1686;DHT22;840;47.980;7.830;2022-08-19T06:20:43;20.40;99.90
1686;DHT22;840;47.980;7.830;2022-08-19T06:23:09;20.50;99.90
1686;DHT22;840;47.980;7.830;2022-08-19T06:25:39;20.50;99.90
1686;DHT22;840;47.980;7.830;2022-08-19T06:28:05;20.60;99.90
1686;DHT22;840;47.980;7.830;2022-08-19T06:30:32;20.50;99.90
1686;DHT22;840;47.980;7.830;2022-08-19T06:32:59;20.60;99.90
1686;DHT22;840;47.980;7.830;2022-08-19T06:35:25;20.60;99.90
1686;DHT22;840;47.980;7.830;2022-08-19T06:37:52;20.70;99.90
1686;DHT22;840;47.980;7.830;2022-08-19T06:40:19;20.70;99.90
1686;DHT22;840;47.980;7.830;2022-08-19T06:42:47;20.70;99.90
1686;DHT22;840;47.980;7.830;2022-08-19T06:45:14;20.80;99.90
1686;DHT22;840;47.980;7.830;2022-08-19T06:47:41;20.80;99.90
1686;DHT22;840;47.980;7.830;2022-08-19T06:50:13;20.90;99.90
1686;DHT22;840;47.980;7.830;2022-08-19T06:52:40;20.90;99.90
1686;DHT22;840;47.980;7.830;2022-08-19T06:55:07;21.00;99.90
1686;DHT22;840;47.980;7.830;2022-08-19T06:57:34;21.00;99.90
1686;DHT22;840;47.980;7.830;2022-08-19T07:00:04;21.10;99.90
1686;DHT22;840;47.980;7.830;2022-08-19T07:02:32;21.10;99.90
1686;DHT22;840;47.980;7.830;2022-08-19T07:05:03;21.10;99.90
1686;DHT22;840;47.980;7.830;2022-08-19T07:07:30;21.20;99.90
1686;DHT22;840;47.980;7.830;2022-08-19T07:09:58;21.20;99.90
1686;DHT22;840;47.980;7.830;2022-08-19T07:12:24;21.20;99.90
1686;DHT22;840;47.980;7.830;2022-08-19T07:14:51;21.30;99.90
1686;DHT22;840;47.980;7.830;2022-08-19T07:17:20;21.40;99.90
1686;DHT22;840;47.980;7.830;2022-08-19T07:19:47;21.40;99.90
1686;DHT22;840;47.980;7.830;2022-08-19T07:22:15;21.50;99.90
1686;DHT22;840;47.980;7.830;2022-08-19T07:24:43;21.50;99.90
1686;DHT22;840;47.980;7.830;2022-08-19T07:27:10;21.60;99.90
1686;DHT22;840;47.980;7.830;2022-08-19T07:29:36;21.70;99.90
1686;DHT22;840;47.980;7.830;2022-08-19T07:32:04;21.70;99.90
1686;DHT22;840;47.980;7.830;2022-08-19T07:34:33;21.80;99.90
1686;DHT22;840;47.980;7.830;2022-08-19T07:37:02;21.80;99.90
1686;DHT22;840;47.980;7.830;2022-08-19T07:39:30;21.90;99.90
1686;DHT22;840;47.980;7.830;2022-08-19T07:41:59;22.00;99.90
1686;DHT22;840;47.980;7.830;2022-08-19T07:44:27;22.00;99.90
1686;DHT22;840;47.980;7.830;2022-08-19T07:46:56;22.10;99.90
1686;DHT22;840;47.980;7.830;2022-08-19T07:49:23;22.10;99.90
1686;DHT22;840;47.980;7.830;2022-08-19T07:51:54;22.10;99.90
1686;DHT22;840;47.980;7.830;2022-08-19T07:54:22;22.10;99.90
1686;DHT22;840;47.980;7.830;2022-08-19T07:56:50;22.20;99.90
1686;DHT22;840;47.980;7.830;2022-08-19T07:59:18;22.20;99.90
1686;DHT22;840;47.980;7.830;2022-08-19T08:01:46;22.20;99.90
1686;DHT22;840;47.980;7.830;2022-08-19T08:04:14;22.30;99.90
1686;DHT22;840;47.980;7.830;2022-08-19T08:06:59;22.30;99.90
1686;DHT22;840;47.980;7.830;2022-08-19T08:09:44;22.40;99.90
1686;DHT22;840;47.980;7.830;2022-08-19T08:12:13;22.40;99.90
1686;DHT22;840;47.980;7.830;2022-08-19T08:14:43;22.40;99.90
1686;DHT22;840;47.980;7.830;2022-08-19T08:17:14;22.30;99.90
1686;DHT22;840;47.980;7.830;2022-08-19T08:19:41;22.30;99.90
1686;DHT22;840;47.980;7.830;2022-08-19T08:22:10;22.30;99.90
1686;DHT22;840;47.980;7.830;2022-08-19T08:25:01;22.30;99.90
1686;DHT22;840;47.980;7.830;2022-08-19T08:27:28;22.30;99.90
1686;DHT22;840;47.980;7.830;2022-08-19T08:29:57;22.20;99.90
1686;DHT22;840;47.980;7.830;2022-08-19T08:32:23;22.20;99.90
1686;DHT22;840;47.980;7.830;2022-08-19T08:34:50;22.20;99.90
1686;DHT22;840;47.980;7.830;2022-08-19T08:37:19;22.30;99.90
1686;DHT22;840;47.980;7.830;2022-08-19T08:39:47;22.30;99.90
1686;DHT22;840;47.980;7.830;2022-08-19T08:42:17;22.30;99.90
1686;DHT22;840;47.980;7.830;2022-08-19T08:44:51;22.30;99.90
1686;DHT22;840;47.980;7.830;2022-08-19T08:47:20;22.30;99.90
1686;DHT22;840;47.980;7.830;2022-08-19T08:49:52;22.20;99.90
1686;DHT22;840;47.980;7.830;2022-08-19T08:52:24;22.30;99.90
1686;DHT22;840;47.980;7.830;2022-08-19T08:54:57;22.30;99.90
1686;DHT22;840;47.980;7.830;2022-08-19T08:57:28;22.40;99.90
1686;DHT22;840;47.980;7.830;2022-08-19T09:00:00;22.50;99.90
1686;DHT22;840;47.980;7.830;2022-08-19T09:02:30;22.60;99.90
1686;DHT22;840;47.980;7.830;2022-08-19T09:04:56;22.50;99.90
1686;DHT22;840;47.980;7.830;2022-08-19T09:07:34;22.50;99.90
1686;DHT22;840;47.980;7.830;2022-08-19T09:10:10;22.40;99.90
1686;DHT22;840;47.980;7.830;2022-08-19T09:12:51;22.40;99.90
1686;DHT22;840;47.980;7.830;2022-08-19T09:15:25;22.40;99.90
1686;DHT22;840;47.980;7.830;2022-08-19T09:17:54;22.40;99.90
1686;DHT22;840;47.980;7.830;2022-08-19T09:20:22;22.40;99.90
1686;DHT22;840;47.980;7.830;2022-08-19T09:22:51;22.50;99.90
1686;DHT22;840;47.980;7.830;2022-08-19T09:25:19;22.60;99.90
1686;DHT22;840;47.980;7.830;2022-08-19T09:27:47;22.60;99.90
1686;DHT22;840;47.980;7.830;2022-08-19T09:30:17;22.60;99.90
1686;DHT22;840;47.980;7.830;2022-08-19T09:32:44;22.60;99.90
1686;DHT22;840;47.980;7.830;2022-08-19T09:35:12;22.60;99.90
1686;DHT22;840;47.980;7.830;2022-08-19T09:37:40;22.60;99.90
1686;DHT22;840;47.980;7.830;2022-08-19T09:40:10;22.60;99.90
1686;DHT22;840;47.980;7.830;2022-08-19T09:42:37;22.60;99.90
1686;DHT22;840;47.980;7.830;2022-08-19T09:45:05;22.60;99.90
1686;DHT22;840;47.980;7.830;2022-08-19T09:47:32;22.70;99.90
1686;DHT22;840;47.980;7.830;2022-08-19T09:50:01;22.90;99.90
1686;DHT22;840;47.980;7.830;2022-08-19T09:52:28;22.90;99.90
1686;DHT22;840;47.980;7.830;2022-08-19T09:54:55;22.90;99.90
1686;DHT22;840;47.980;7.830;2022-08-19T09:57:23;23.00;99.90
1686;DHT22;840;47.980;7.830;2022-08-19T09:59:50;23.10;99.90
1686;DHT22;840;47.980;7.830;2022-08-19T10:02:16;23.20;99.90
1686;DHT22;840;47.980;7.830;2022-08-19T10:04:44;23.20;99.90
1686;DHT22;840;47.980;7.830;2022-08-19T10:07:29;23.30;99.90
1686;DHT22;840;47.980;7.830;2022-08-19T10:09:56;23.40;99.90
1686;DHT22;840;47.980;7.830;2022-08-19T10:12:26;23.50;99.90
1686;DHT22;840;47.980;7.830;2022-08-19T10:14:53;23.60;99.90
1686;DHT22;840;47.980;7.830;2022-08-19T10:17:21;23.80;99.90
1686;DHT22;840;47.980;7.830;2022-08-19T10:19:48;23.90;99.90
1686;DHT22;840;47.980;7.830;2022-08-19T10:22:15;24.10;99.90
1686;DHT22;840;47.980;7.830;2022-08-19T10:24:41;24.20;99.90
1686;DHT22;840;47.980;7.830;2022-08-19T10:27:08;24.30;99.90
1686;DHT22;840;47.980;7.830;2022-08-19T10:29:36;24.30;99.90
1686;DHT22;840;47.980;7.830;2022-08-19T10:32:04;24.40;99.90
1686;DHT22;840;47.980;7.830;2022-08-19T10:34:34;24.50;99.90
1686;DHT22;840;47.980;7.830;2022-08-19T10:37:03;24.40;99.90
1686;DHT22;840;47.980;7.830;2022-08-19T10:39:32;24.30;99.90
1686;DHT22;840;47.980;7.830;2022-08-19T10:41:59;24.20;99.90
1686;DHT22;840;47.980;7.830;2022-08-19T10:44:29;24.10;99.90
1686;DHT22;840;47.980;7.830;2022-08-19T10:46:59;24.00;99.90
1686;DHT22;840;47.980;7.830;2022-08-19T10:49:26;23.90;99.90
1686;DHT22;840;47.980;7.830;2022-08-19T10:51:53;23.90;99.90
1686;DHT22;840;47.980;7.830;2022-08-19T10:54:37;23.80;99.90
1686;DHT22;840;47.980;7.830;2022-08-19T10:57:21;23.80;99.90
1686;DHT22;840;47.980;7.830;2022-08-19T10:59:54;23.80;99.90
1686;DHT22;840;47.980;7.830;2022-08-19T11:02:22;23.80;99.90
1686;DHT22;840;47.980;7.830;2022-08-19T11:04:49;23.70;99.90
1686;DHT22;840;47.980;7.830;2022-08-19T11:07:17;23.70;99.90
1686;DHT22;840;47.980;7.830;2022-08-19T11:09:44;23.80;99.90
1686;DHT22;840;47.980;7.830;2022-08-19T11:12:11;23.90;99.90
1686;DHT22;840;47.980;7.830;2022-08-19T11:14:40;24.10;99.90
1686;DHT22;840;47.980;7.830;2022-08-19T11:17:07;24.20;99.90
1686;DHT22;840;47.980;7.830;2022-08-19T11:19:35;24.40;99.90
1686;DHT22;840;47.980;7.830;2022-08-19T11:22:02;24.70;99.90
1686;DHT22;840;47.980;7.830;2022-08-19T11:24:30;24.90;99.90
1686;DHT22;840;47.980;7.830;2022-08-19T11:27:01;25.10;99.90
1686;DHT22;840;47.980;7.830;2022-08-19T11:29:30;25.30;99.90
1686;DHT22;840;47.980;7.830;2022-08-19T11:31:57;25.30;99.90
1686;DHT22;840;47.980;7.830;2022-08-19T11:34:25;25.00;99.90
1686;DHT22;840;47.980;7.830;2022-08-19T11:36:56;24.90;99.90
1686;DHT22;840;47.980;7.830;2022-08-19T11:39:25;24.90;99.90
1686;DHT22;840;47.980;7.830;2022-08-19T11:41:52;25.10;99.90
1686;DHT22;840;47.980;7.830;2022-08-19T11:44:19;25.30;99.90
1686;DHT22;840;47.980;7.830;2022-08-19T11:46:46;25.30;99.90
1686;DHT22;840;47.980;7.830;2022-08-19T11:49:13;25.20;99.90
1686;DHT22;840;47.980;7.830;2022-08-19T11:51:41;25.20;99.90
1686;DHT22;840;47.980;7.830;2022-08-19T11:54:14;25.30;99.90
1686;DHT22;840;47.980;7.830;2022-08-19T11:56:41;25.40;99.90
1686;DHT22;840;47.980;7.830;2022-08-19T11:59:08;25.30;99.90
1686;DHT22;840;47.980;7.830;2022-08-19T12:01:41;25.20;99.90
1686;DHT22;840;47.980;7.830;2022-08-19T12:04:09;25.10;99.90
1686;DHT22;840;47.980;7.830;2022-08-19T12:06:38;25.00;99.90
1686;DHT22;840;47.980;7.830;2022-08-19T12:09:06;25.20;99.90
1686;DHT22;840;47.980;7.830;2022-08-19T12:11:35;25.40;99.90
1686;DHT22;840;47.980;7.830;2022-08-19T12:14:03;25.40;99.90
1686;DHT22;840;47.980;7.830;2022-08-19T12:16:31;25.50;99.90
1686;DHT22;840;47.980;7.830;2022-08-19T12:18:58;25.60;99.90
1686;DHT22;840;47.980;7.830;2022-08-19T12:21:29;25.60;99.90
1686;DHT22;840;47.980;7.830;2022-08-19T12:23:57;25.50;99.90
1686;DHT22;840;47.980;7.830;2022-08-19T12:26:25;25.60;99.90
1686;DHT22;840;47.980;7.830;2022-08-19T12:28:54;25.50;99.90
1686;DHT22;840;47.980;7.830;2022-08-19T12:31:21;25.50;99.90
1686;DHT22;840;47.980;7.830;2022-08-19T12:33:48;25.30;99.90
1686;DHT22;840;47.980;7.830;2022-08-19T12:36:15;25.30;99.90
1686;DHT22;840;47.980;7.830;2022-08-19T12:38:43;25.20;99.90
1686;DHT22;840;47.980;7.830;2022-08-19T12:41:12;25.30;99.90
1686;DHT22;840;47.980;7.830;2022-08-19T12:43:39;25.40;99.90
1686;DHT22;840;47.980;7.830;2022-08-19T12:46:08;25.60;99.90
1686;DHT22;840;47.980;7.830;2022-08-19T12:48:35;25.80;99.90
1686;DHT22;840;47.980;7.830;2022-08-19T12:51:06;26.00;99.90
1686;DHT22;840;47.980;7.830;2022-08-19T12:53:34;26.10;99.90
1686;DHT22;840;47.980;7.830;2022-08-19T12:56:01;26.20;99.90
1686;DHT22;840;47.980;7.830;2022-08-19T12:58:29;26.00;99.90
1686;DHT22;840;47.980;7.830;2022-08-19T13:00:56;26.20;99.90
1686;DHT22;840;47.980;7.830;2022-08-19T13:03:24;26.40;99.90
1686;DHT22;840;47.980;7.830;2022-08-19T13:05:55;26.20;99.90
1686;DHT22;840;47.980;7.830;2022-08-19T13:08:21;26.00;99.90
1686;DHT22;840;47.980;7.830;2022-08-19T13:10:48;26.00;99.90
1686;DHT22;840;47.980;7.830;2022-08-19T13:13:16;25.90;99.90
1686;DHT22;840;47.980;7.830;2022-08-19T13:15:43;25.70;99.90
1686;DHT22;840;47.980;7.830;2022-08-19T13:18:11;25.70;99.90
1686;DHT22;840;47.980;7.830;2022-08-19T13:20:40;25.50;99.90
1686;DHT22;840;47.980;7.830;2022-08-19T13:23:07;25.60;99.90
1686;DHT22;840;47.980;7.830;2022-08-19T13:25:36;25.70;99.90
1686;DHT22;840;47.980;7.830;2022-08-19T13:28:03;25.80;99.90
1686;DHT22;840;47.980;7.830;2022-08-19T13:30:32;26.00;99.90
1686;DHT22;840;47.980;7.830;2022-08-19T13:33:17;26.20;99.90
1686;DHT22;840;47.980;7.830;2022-08-19T13:35:47;26.40;99.90
1686;DHT22;840;47.980;7.830;2022-08-19T13:38:15;26.70;99.90
1686;DHT22;840;47.980;7.830;2022-08-19T13:40:43;26.90;99.90
1686;DHT22;840;47.980;7.830;2022-08-19T13:43:10;27.30;99.90
1686;DHT22;840;47.980;7.830;2022-08-19T13:45:37;27.70;99.90
1686;DHT22;840;47.980;7.830;2022-08-19T13:48:06;27.90;99.90
1686;DHT22;840;47.980;7.830;2022-08-19T13:50:35;28.20;99.90
1686;DHT22;840;47.980;7.830;2022-08-19T13:53:05;28.50;99.90
1686;DHT22;840;47.980;7.830;2022-08-19T13:55:32;28.70;99.90
1686;DHT22;840;47.980;7.830;2022-08-19T13:58:00;28.90;99.90
1686;DHT22;840;47.980;7.830;2022-08-19T14:00:31;29.10;99.90
1686;DHT22;840;47.980;7.830;2022-08-19T14:02:58;29.30;99.90
1686;DHT22;840;47.980;7.830;2022-08-19T14:05:26;29.30;99.90
1686;DHT22;840;47.980;7.830;2022-08-19T14:07:54;29.20;99.90
1686;DHT22;840;47.980;7.830;2022-08-19T14:10:23;29.00;99.90
1686;DHT22;840;47.980;7.830;2022-08-19T14:12:52;29.00;99.90
1686;DHT22;840;47.980;7.830;2022-08-19T14:15:21;29.00;99.90
1686;DHT22;840;47.980;7.830;2022-08-19T14:17:48;28.90;99.90
1686;DHT22;840;47.980;7.830;2022-08-19T14:20:15;29.00;99.90
1686;DHT22;840;47.980;7.830;2022-08-19T14:22:43;29.20;99.90
1686;DHT22;840;47.980;7.830;2022-08-19T14:25:13;29.10;99.90
1686;DHT22;840;47.980;7.830;2022-08-19T14:27:41;28.80;99.90
1686;DHT22;840;47.980;7.830;2022-08-19T14:30:10;28.50;99.90
1686;DHT22;840;47.980;7.830;2022-08-19T14:32:37;28.10;99.90
1686;DHT22;840;47.980;7.830;2022-08-19T14:35:05;27.60;99.90
1686;DHT22;840;47.980;7.830;2022-08-19T14:37:33;27.20;99.90
1686;DHT22;840;47.980;7.830;2022-08-19T14:40:00;26.90;99.90
1686;DHT22;840;47.980;7.830;2022-08-19T14:42:27;26.70;99.90
1686;DHT22;840;47.980;7.830;2022-08-19T14:44:58;26.30;99.90
1686;DHT22;840;47.980;7.830;2022-08-19T14:47:26;26.00;99.90
1686;DHT22;840;47.980;7.830;2022-08-19T14:49:53;25.70;99.90
1686;DHT22;840;47.980;7.830;2022-08-19T14:52:20;25.50;99.90
1686;DHT22;840;47.980;7.830;2022-08-19T14:54:47;25.30;99.90
1686;DHT22;840;47.980;7.830;2022-08-19T14:57:14;25.30;99.90
1686;DHT22;840;47.980;7.830;2022-08-19T14:59:42;25.30;99.90
1686;DHT22;840;47.980;7.830;2022-08-19T15:02:10;25.20;99.90
1686;DHT22;840;47.980;7.830;2022-08-19T15:04:37;25.10;99.90
1686;DHT22;840;47.980;7.830;2022-08-19T15:07:05;25.10;99.90
1686;DHT22;840;47.980;7.830;2022-08-19T15:09:33;24.90;99.90
1686;DHT22;840;47.980;7.830;2022-08-19T15:12:01;24.80;99.90
1686;DHT22;840;47.980;7.830;2022-08-19T15:14:30;24.70;99.90
1686;DHT22;840;47.980;7.830;2022-08-19T15:17:00;24.60;99.90
1686;DHT22;840;47.980;7.830;2022-08-19T15:19:30;24.60;99.90
1686;DHT22;840;47.980;7.830;2022-08-19T15:21:57;24.60;99.90
1686;DHT22;840;47.980;7.830;2022-08-19T15:24:24;24.50;99.90
1686;DHT22;840;47.980;7.830;2022-08-19T15:26:51;24.50;99.90
1686;DHT22;840;47.980;7.830;2022-08-19T15:29:19;24.50;99.90
1686;DHT22;840;47.980;7.830;2022-08-19T15:31:45;24.50;99.90
1686;DHT22;840;47.980;7.830;2022-08-19T15:34:15;24.50;99.90
1686;DHT22;840;47.980;7.830;2022-08-19T15:36:43;24.50;99.90
1686;DHT22;840;47.980;7.830;2022-08-19T15:39:10;24.50;99.90
1686;DHT22;840;47.980;7.830;2022-08-19T15:41:37;24.50;99.90
1686;DHT22;840;47.980;7.830;2022-08-19T15:44:07;24.60;99.90
1686;DHT22;840;47.980;7.830;2022-08-19T15:46:36;24.60;99.90
1686;DHT22;840;47.980;7.830;2022-08-19T15:49:04;24.60;99.90
1686;DHT22;840;47.980;7.830;2022-08-19T15:51:33;24.60;99.90
1686;DHT22;840;47.980;7.830;2022-08-19T15:54:03;24.70;99.90
1686;DHT22;840;47.980;7.830;2022-08-19T15:56:30;24.70;99.90
1686;DHT22;840;47.980;7.830;2022-08-19T15:59:10;24.70;99.90
1686;DHT22;840;47.980;7.830;2022-08-19T16:02:03;24.80;99.90
1686;DHT22;840;47.980;7.830;2022-08-19T16:04:47;24.90;99.90
1686;DHT22;840;47.980;7.830;2022-08-19T16:07:32;25.00;99.90
1686;DHT22;840;47.980;7.830;2022-08-19T16:10:00;25.10;99.90
1686;DHT22;840;47.980;7.830;2022-08-19T16:12:26;25.10;99.90
1686;DHT22;840;47.980;7.830;2022-08-19T16:14:54;25.20;99.90
1686;DHT22;840;47.980;7.830;2022-08-19T16:17:21;25.30;99.90
1686;DHT22;840;47.980;7.830;2022-08-19T16:19:49;25.20;99.90
1686;DHT22;840;47.980;7.830;2022-08-19T16:22:16;25.20;99.90
1686;DHT22;840;47.980;7.830;2022-08-19T16:24:47;25.20;99.90
1686;DHT22;840;47.980;7.830;2022-08-19T16:27:16;25.20;99.90